sensor_id;sensor_type;location;lat;lon;timestamp;P1;durP1;ratioP1;P2;durP2;ratioP2
74650;SDS011;63169;46.042;14.592;2022-12-18T00:01:25;17.50;;;10.35;;
74650;SDS011;63169;46.042;14.592;2022-12-18T00:03:58;17.55;;;10.38;;
74650;SDS011;63169;46.042;14.592;2022-12-18T00:06:24;17.63;;;7.47;;
74650;SDS011;63169;46.042;14.592;2022-12-18T00:08:51;16.65;;;10.52;;
74650;SDS011;63169;46.042;14.592;2022-12-18T00:11:18;20.95;;;8.02;;
74650;SDS011;63169;46.042;14.592;2022-12-18T00:13:45;16.85;;;11.13;;
74650;SDS011;63169;46.042;14.592;2022-12-18T00:16:12;15.90;;;7.88;;
74650;SDS011;63169;46.042;14.592;2022-12-18T00:18:39;17.88;;;9.18;;
74650;SDS011;63169;46.042;14.592;2022-12-18T00:21:06;17.75;;;8.65;;
74650;SDS011;63169;46.042;14.592;2022-12-18T00:23:34;17.08;;;8.85;;
74650;SDS011;63169;46.042;14.592;2022-12-18T00:26:01;16.27;;;9.55;;
74650;SDS011;63169;46.042;14.592;2022-12-18T00:28:27;18.40;;;10.52;;
74650;SDS011;63169;46.042;14.592;2022-12-18T00:31:26;15.65;;;9.45;;
74650;SDS011;63169;46.042;14.592;2022-12-18T00:33:45;16.95;;;10.18;;
74650;SDS011;63169;46.042;14.592;2022-12-18T00:36:12;14.88;;;8.93;;
74650;SDS011;63169;46.042;14.592;2022-12-18T00:38:40;13.38;;;8.95;;
74650;SDS011;63169;46.042;14.592;2022-12-18T00:41:06;16.52;;;9.00;;
74650;SDS011;63169;46.042;14.592;2022-12-18T00:43:34;20.38;;;11.82;;
74650;SDS011;63169;46.042;14.592;2022-12-18T00:45:59;15.70;;;10.50;;
74650;SDS011;63169;46.042;14.592;2022-12-18T00:48:25;16.85;;;9.00;;
74650;SDS011;63169;46.042;14.592;2022-12-18T00:50:50;15.38;;;8.63;;
74650;SDS011;63169;46.042;14.592;2022-12-18T00:53:16;16.67;;;9.38;;
74650;SDS011;63169;46.042;14.592;2022-12-18T00:55:42;16.95;;;10.55;;
74650;SDS011;63169;46.042;14.592;2022-12-18T00:58:08;20.00;;;11.32;;
74650;SDS011;63169;46.042;14.592;2022-12-18T01:00:34;18.05;;;10.35;;
74650;SDS011;63169;46.042;14.592;2022-12-18T01:03:00;17.92;;;8.98;;
74650;SDS011;63169;46.042;14.592;2022-12-18T01:05:26;17.05;;;9.52;;
74650;SDS011;63169;46.042;14.592;2022-12-18T01:07:52;16.40;;;9.55;;
74650;SDS011;63169;46.042;14.592;2022-12-18T01:10:17;17.25;;;9.57;;
74650;SDS011;63169;46.042;14.592;2022-12-18T01:12:43;16.70;;;8.90;;
74650;SDS011;63169;46.042;14.592;2022-12-18T01:15:09;19.85;;;10.43;;
74650;SDS011;63169;46.042;14.592;2022-12-18T01:17:35;20.10;;;10.43;;
74650;SDS011;63169;46.042;14.592;2022-12-18T01:20:01;16.48;;;9.73;;
74650;SDS011;63169;46.042;14.592;2022-12-18T01:22:26;18.83;;;9.57;;
74650;SDS011;63169;46.042;14.592;2022-12-18T01:24:51;19.33;;;11.55;;
74650;SDS011;63169;46.042;14.592;2022-12-18T01:27:17;23.85;;;12.18;;
74650;SDS011;63169;46.042;14.592;2022-12-18T01:29:42;28.27;;;13.20;;
74650;SDS011;63169;46.042;14.592;2022-12-18T01:32:08;25.73;;;11.13;;
74650;SDS011;63169;46.042;14.592;2022-12-18T01:34:35;26.58;;;14.05;;
74650;SDS011;63169;46.042;14.592;2022-12-18T01:37:02;25.30;;;12.13;;
74650;SDS011;63169;46.042;14.592;2022-12-18T01:39:28;22.17;;;12.55;;
74650;SDS011;63169;46.042;14.592;2022-12-18T01:41:54;19.98;;;7.68;;
74650;SDS011;63169;46.042;14.592;2022-12-18T01:49:47;19.83;;;10.00;;
74650;SDS011;63169;46.042;14.592;2022-12-18T01:52:13;21.20;;;10.85;;
74650;SDS011;63169;46.042;14.592;2022-12-18T01:54:41;21.85;;;13.15;;
74650;SDS011;63169;46.042;14.592;2022-12-18T01:57:06;20.15;;;10.25;;
74650;SDS011;63169;46.042;14.592;2022-12-18T01:59:32;24.90;;;12.02;;
74650;SDS011;63169;46.042;14.592;2022-12-18T02:01:59;18.55;;;9.43;;
74650;SDS011;63169;46.042;14.592;2022-12-18T02:04:25;21.63;;;11.07;;
74650;SDS011;63169;46.042;14.592;2022-12-18T02:06:56;19.30;;;10.43;;
74650;SDS011;63169;46.042;14.592;2022-12-18T02:09:36;18.88;;;10.52;;
74650;SDS011;63169;46.042;14.592;2022-12-18T02:15:00;24.25;;;11.18;;
74650;SDS011;63169;46.042;14.592;2022-12-18T02:17:43;23.50;;;12.93;;
74650;SDS011;63169;46.042;14.592;2022-12-18T02:20:24;21.63;;;11.55;;
74650;SDS011;63169;46.042;14.592;2022-12-18T02:25:38;21.63;;;10.48;;
74650;SDS011;63169;46.042;14.592;2022-12-18T02:28:25;25.00;;;11.65;;
74650;SDS011;63169;46.042;14.592;2022-12-18T02:30:53;26.73;;;12.60;;
74650;SDS011;63169;46.042;14.592;2022-12-18T02:33:21;23.75;;;13.20;;
74650;SDS011;63169;46.042;14.592;2022-12-18T02:35:50;27.83;;;13.00;;
74650;SDS011;63169;46.042;14.592;2022-12-18T02:38:17;25.60;;;12.95;;
74650;SDS011;63169;46.042;14.592;2022-12-18T02:40:42;29.55;;;14.90;;
74650;SDS011;63169;46.042;14.592;2022-12-18T02:43:10;19.15;;;12.23;;
74650;SDS011;63169;46.042;14.592;2022-12-18T02:45:45;22.75;;;11.93;;
74650;SDS011;63169;46.042;14.592;2022-12-18T02:48:18;22.08;;;12.43;;
74650;SDS011;63169;46.042;14.592;2022-12-18T02:50:58;20.02;;;10.73;;
74650;SDS011;63169;46.042;14.592;2022-12-18T02:53:31;20.42;;;12.25;;
74650;SDS011;63169;46.042;14.592;2022-12-18T03:03:25;20.40;;;11.55;;
74650;SDS011;63169;46.042;14.592;2022-12-18T03:08:33;22.30;;;12.10;;
74650;SDS011;63169;46.042;14.592;2022-12-18T03:11:04;24.67;;;13.38;;
74650;SDS011;63169;46.042;14.592;2022-12-18T03:13:39;24.38;;;11.02;;
74650;SDS011;63169;46.042;14.592;2022-12-18T03:16:20;18.05;;;11.15;;
74650;SDS011;63169;46.042;14.592;2022-12-18T03:18:53;22.60;;;12.73;;
74650;SDS011;63169;46.042;14.592;2022-12-18T03:21:22;20.13;;;11.23;;
74650;SDS011;63169;46.042;14.592;2022-12-18T03:23:51;23.60;;;11.95;;
74650;SDS011;63169;46.042;14.592;2022-12-18T03:26:18;21.08;;;11.95;;
74650;SDS011;63169;46.042;14.592;2022-12-18T03:28:46;22.83;;;12.98;;
74650;SDS011;63169;46.042;14.592;2022-12-18T03:31:22;25.33;;;12.13;;
74650;SDS011;63169;46.042;14.592;2022-12-18T03:33:54;22.02;;;11.00;;
74650;SDS011;63169;46.042;14.592;2022-12-18T03:36:21;21.45;;;9.95;;
74650;SDS011;63169;46.042;14.592;2022-12-18T03:38:47;19.15;;;10.60;;
74650;SDS011;63169;46.042;14.592;2022-12-18T03:46:20;21.83;;;12.20;;
74650;SDS011;63169;46.042;14.592;2022-12-18T03:48:52;25.40;;;12.43;;
74650;SDS011;63169;46.042;14.592;2022-12-18T03:51:50;20.52;;;11.98;;
74650;SDS011;63169;46.042;14.592;2022-12-18T03:54:18;23.10;;;12.10;;
74650;SDS011;63169;46.042;14.592;2022-12-18T03:56:48;22.02;;;10.77;;
74650;SDS011;63169;46.042;14.592;2022-12-18T03:59:18;24.60;;;12.02;;
74650;SDS011;63169;46.042;14.592;2022-12-18T04:01:48;30.63;;;14.90;;
74650;SDS011;63169;46.042;14.592;2022-12-18T04:04:14;26.17;;;13.82;;
74650;SDS011;63169;46.042;14.592;2022-12-18T04:06:40;30.20;;;14.63;;
74650;SDS011;63169;46.042;14.592;2022-12-18T04:09:07;28.60;;;13.90;;
74650;SDS011;63169;46.042;14.592;2022-12-18T04:11:32;27.55;;;12.80;;
74650;SDS011;63169;46.042;14.592;2022-12-18T04:13:58;29.77;;;15.30;;
74650;SDS011;63169;46.042;14.592;2022-12-18T04:16:24;24.40;;;15.10;;
74650;SDS011;63169;46.042;14.592;2022-12-18T04:18:50;26.65;;;14.38;;
74650;SDS011;63169;46.042;14.592;2022-12-18T04:21:16;25.73;;;13.80;;
74650;SDS011;63169;46.042;14.592;2022-12-18T04:23:41;24.17;;;12.98;;
74650;SDS011;63169;46.042;14.592;2022-12-18T04:26:06;31.05;;;14.55;;
74650;SDS011;63169;46.042;14.592;2022-12-18T04:28:32;23.85;;;13.35;;
74650;SDS011;63169;46.042;14.592;2022-12-18T04:30:57;29.05;;;14.57;;
74650;SDS011;63169;46.042;14.592;2022-12-18T04:33:23;31.15;;;15.38;;
74650;SDS011;63169;46.042;14.592;2022-12-18T04:35:48;28.42;;;14.70;;
74650;SDS011;63169;46.042;14.592;2022-12-18T04:38:13;36.75;;;14.75;;
74650;SDS011;63169;46.042;14.592;2022-12-18T04:40:39;31.52;;;16.60;;
74650;SDS011;63169;46.042;14.592;2022-12-18T04:43:04;31.52;;;15.80;;
74650;SDS011;63169;46.042;14.592;2022-12-18T04:45:31;31.35;;;14.43;;
74650;SDS011;63169;46.042;14.592;2022-12-18T04:47:57;32.67;;;14.90;;
74650;SDS011;63169;46.042;14.592;2022-12-18T04:50:23;36.65;;;14.23;;
74650;SDS011;63169;46.042;14.592;2022-12-18T04:52:49;36.70;;;17.33;;
74650;SDS011;63169;46.042;14.592;2022-12-18T04:55:14;36.38;;;15.57;;
74650;SDS011;63169;46.042;14.592;2022-12-18T04:57:40;38.20;;;17.25;;
74650;SDS011;63169;46.042;14.592;2022-12-18T05:00:05;32.90;;;13.63;;
74650;SDS011;63169;46.042;14.592;2022-12-18T05:02:31;32.95;;;16.17;;
74650;SDS011;63169;46.042;14.592;2022-12-18T05:04:57;27.98;;;13.88;;
74650;SDS011;63169;46.042;14.592;2022-12-18T05:07:22;28.63;;;12.43;;
74650;SDS011;63169;46.042;14.592;2022-12-18T05:09:48;30.13;;;11.80;;
74650;SDS011;63169;46.042;14.592;2022-12-18T05:12:13;30.20;;;13.90;;
74650;SDS011;63169;46.042;14.592;2022-12-18T05:14:38;26.50;;;14.90;;
74650;SDS011;63169;46.042;14.592;2022-12-18T05:17:04;26.95;;;12.05;;
74650;SDS011;63169;46.042;14.592;2022-12-18T05:19:29;25.27;;;12.70;;
74650;SDS011;63169;46.042;14.592;2022-12-18T05:21:55;23.50;;;13.48;;
74650;SDS011;63169;46.042;14.592;2022-12-18T05:24:20;28.50;;;12.95;;
74650;SDS011;63169;46.042;14.592;2022-12-18T05:26:45;22.95;;;13.63;;
74650;SDS011;63169;46.042;14.592;2022-12-18T05:29:11;21.50;;;12.73;;
74650;SDS011;63169;46.042;14.592;2022-12-18T05:31:37;23.80;;;14.25;;
74650;SDS011;63169;46.042;14.592;2022-12-18T05:34:03;26.38;;;13.73;;
74650;SDS011;63169;46.042;14.592;2022-12-18T05:36:29;25.67;;;13.55;;
74650;SDS011;63169;46.042;14.592;2022-12-18T05:38:54;25.10;;;12.73;;
74650;SDS011;63169;46.042;14.592;2022-12-18T05:41:20;25.55;;;13.75;;
74650;SDS011;63169;46.042;14.592;2022-12-18T05:43:45;28.38;;;14.50;;
74650;SDS011;63169;46.042;14.592;2022-12-18T05:46:12;24.85;;;11.15;;
74650;SDS011;63169;46.042;14.592;2022-12-18T05:48:39;33.88;;;15.23;;
74650;SDS011;63169;46.042;14.592;2022-12-18T05:51:09;25.17;;;13.77;;
74650;SDS011;63169;46.042;14.592;2022-12-18T05:53:36;26.23;;;12.10;;
74650;SDS011;63169;46.042;14.592;2022-12-18T05:56:03;26.88;;;12.77;;
74650;SDS011;63169;46.042;14.592;2022-12-18T05:58:30;29.80;;;13.55;;
74650;SDS011;63169;46.042;14.592;2022-12-18T06:00:56;23.95;;;11.02;;
74650;SDS011;63169;46.042;14.592;2022-12-18T06:03:21;32.17;;;13.25;;
74650;SDS011;63169;46.042;14.592;2022-12-18T06:05:47;26.90;;;13.85;;
74650;SDS011;63169;46.042;14.592;2022-12-18T06:08:12;29.45;;;14.30;;
74650;SDS011;63169;46.042;14.592;2022-12-18T06:10:38;26.00;;;13.48;;
74650;SDS011;63169;46.042;14.592;2022-12-18T06:13:04;24.13;;;12.50;;
74650;SDS011;63169;46.042;14.592;2022-12-18T06:15:30;28.65;;;14.27;;
74650;SDS011;63169;46.042;14.592;2022-12-18T06:17:55;24.10;;;13.63;;
74650;SDS011;63169;46.042;14.592;2022-12-18T06:20:21;32.05;;;13.88;;
74650;SDS011;63169;46.042;14.592;2022-12-18T06:22:46;25.80;;;15.30;;
74650;SDS011;63169;46.042;14.592;2022-12-18T06:25:11;29.98;;;15.90;;
74650;SDS011;63169;46.042;14.592;2022-12-18T06:27:37;27.30;;;14.93;;
74650;SDS011;63169;46.042;14.592;2022-12-18T06:30:03;29.60;;;14.05;;
74650;SDS011;63169;46.042;14.592;2022-12-18T06:32:29;28.77;;;14.45;;
74650;SDS011;63169;46.042;14.592;2022-12-18T06:34:54;28.73;;;13.52;;
74650;SDS011;63169;46.042;14.592;2022-12-18T06:37:20;30.98;;;16.13;;
74650;SDS011;63169;46.042;14.592;2022-12-18T06:39:46;27.83;;;14.93;;
74650;SDS011;63169;46.042;14.592;2022-12-18T06:42:11;26.83;;;14.38;;
74650;SDS011;63169;46.042;14.592;2022-12-18T06:44:37;26.23;;;15.45;;
74650;SDS011;63169;46.042;14.592;2022-12-18T06:47:02;31.70;;;15.40;;
74650;SDS011;63169;46.042;14.592;2022-12-18T06:49:28;27.75;;;15.65;;
74650;SDS011;63169;46.042;14.592;2022-12-18T06:51:53;30.05;;;14.88;;
74650;SDS011;63169;46.042;14.592;2022-12-18T06:54:18;31.42;;;16.75;;
74650;SDS011;63169;46.042;14.592;2022-12-18T06:56:47;31.58;;;14.70;;
74650;SDS011;63169;46.042;14.592;2022-12-18T06:59:13;31.92;;;15.13;;
74650;SDS011;63169;46.042;14.592;2022-12-18T07:01:38;32.03;;;16.52;;
74650;SDS011;63169;46.042;14.592;2022-12-18T07:04:04;25.13;;;11.20;;
74650;SDS011;63169;46.042;14.592;2022-12-18T07:06:29;25.10;;;14.45;;
74650;SDS011;63169;46.042;14.592;2022-12-18T07:08:55;28.42;;;11.50;;
74650;SDS011;63169;46.042;14.592;2022-12-18T07:11:20;24.65;;;14.23;;
74650;SDS011;63169;46.042;14.592;2022-12-18T07:13:46;33.25;;;14.10;;
74650;SDS011;63169;46.042;14.592;2022-12-18T07:16:12;27.88;;;12.65;;
74650;SDS011;63169;46.042;14.592;2022-12-18T07:18:42;27.05;;;12.88;;
74650;SDS011;63169;46.042;14.592;2022-12-18T07:21:08;36.42;;;16.02;;
74650;SDS011;63169;46.042;14.592;2022-12-18T07:23:36;25.77;;;12.88;;
74650;SDS011;63169;46.042;14.592;2022-12-18T07:26:04;28.98;;;14.27;;
74650;SDS011;63169;46.042;14.592;2022-12-18T07:28:31;33.15;;;13.20;;
74650;SDS011;63169;46.042;14.592;2022-12-18T07:30:58;29.27;;;14.43;;
74650;SDS011;63169;46.042;14.592;2022-12-18T07:33:27;33.83;;;14.63;;
74650;SDS011;63169;46.042;14.592;2022-12-18T07:35:52;33.92;;;15.80;;
74650;SDS011;63169;46.042;14.592;2022-12-18T07:38:18;36.28;;;18.10;;
74650;SDS011;63169;46.042;14.592;2022-12-18T07:40:43;28.80;;;16.65;;
74650;SDS011;63169;46.042;14.592;2022-12-18T07:43:08;29.50;;;15.35;;
74650;SDS011;63169;46.042;14.592;2022-12-18T07:45:34;30.17;;;14.57;;
74650;SDS011;63169;46.042;14.592;2022-12-18T07:47:59;29.15;;;15.60;;
74650;SDS011;63169;46.042;14.592;2022-12-18T07:50:24;27.73;;;15.00;;
74650;SDS011;63169;46.042;14.592;2022-12-18T07:52:50;34.85;;;16.90;;
74650;SDS011;63169;46.042;14.592;2022-12-18T07:55:15;31.33;;;17.90;;
74650;SDS011;63169;46.042;14.592;2022-12-18T07:57:41;35.65;;;19.48;;
74650;SDS011;63169;46.042;14.592;2022-12-18T08:00:06;60.58;;;31.90;;
74650;SDS011;63169;46.042;14.592;2022-12-18T08:02:32;38.35;;;19.50;;
74650;SDS011;63169;46.042;14.592;2022-12-18T08:04:58;41.05;;;19.70;;
74650;SDS011;63169;46.042;14.592;2022-12-18T08:07:23;37.33;;;18.90;;
74650;SDS011;63169;46.042;14.592;2022-12-18T08:09:49;31.73;;;16.55;;
74650;SDS011;63169;46.042;14.592;2022-12-18T08:12:14;27.70;;;16.33;;
74650;SDS011;63169;46.042;14.592;2022-12-18T08:14:39;27.38;;;15.05;;
74650;SDS011;63169;46.042;14.592;2022-12-18T08:17:05;33.95;;;16.77;;
74650;SDS011;63169;46.042;14.592;2022-12-18T08:19:30;29.60;;;17.98;;
74650;SDS011;63169;46.042;14.592;2022-12-18T08:21:55;30.40;;;14.88;;
74650;SDS011;63169;46.042;14.592;2022-12-18T08:24:21;27.05;;;13.98;;
74650;SDS011;63169;46.042;14.592;2022-12-18T08:26:47;29.83;;;16.05;;
74650;SDS011;63169;46.042;14.592;2022-12-18T08:29:12;29.40;;;16.85;;
74650;SDS011;63169;46.042;14.592;2022-12-18T08:31:38;31.08;;;16.50;;
74650;SDS011;63169;46.042;14.592;2022-12-18T08:34:03;25.10;;;16.65;;
74650;SDS011;63169;46.042;14.592;2022-12-18T08:36:28;32.35;;;15.68;;
74650;SDS011;63169;46.042;14.592;2022-12-18T08:38:54;29.38;;;14.65;;
74650;SDS011;63169;46.042;14.592;2022-12-18T08:41:19;29.10;;;17.33;;
74650;SDS011;63169;46.042;14.592;2022-12-18T08:43:45;30.15;;;17.65;;
74650;SDS011;63169;46.042;14.592;2022-12-18T08:46:34;32.33;;;16.58;;
74650;SDS011;63169;46.042;14.592;2022-12-18T08:49:04;27.00;;;15.70;;
74650;SDS011;63169;46.042;14.592;2022-12-18T08:51:30;28.52;;;16.55;;
74650;SDS011;63169;46.042;14.592;2022-12-18T08:53:56;31.95;;;16.95;;
74650;SDS011;63169;46.042;14.592;2022-12-18T08:56:21;39.63;;;20.08;;
74650;SDS011;63169;46.042;14.592;2022-12-18T08:58:46;40.08;;;19.95;;
74650;SDS011;63169;46.042;14.592;2022-12-18T09:01:12;38.03;;;19.55;;
74650;SDS011;63169;46.042;14.592;2022-12-18T09:03:38;38.78;;;20.95;;
74650;SDS011;63169;46.042;14.592;2022-12-18T09:06:04;44.00;;;21.48;;
74650;SDS011;63169;46.042;14.592;2022-12-18T09:08:30;36.53;;;18.73;;
74650;SDS011;63169;46.042;14.592;2022-12-18T09:10:56;42.25;;;19.85;;
74650;SDS011;63169;46.042;14.592;2022-12-18T09:13:21;40.50;;;18.33;;
74650;SDS011;63169;46.042;14.592;2022-12-18T09:15:48;37.35;;;20.08;;
74650;SDS011;63169;46.042;14.592;2022-12-18T09:18:15;36.17;;;19.70;;
74650;SDS011;63169;46.042;14.592;2022-12-18T09:20:41;39.55;;;20.33;;
74650;SDS011;63169;46.042;14.592;2022-12-18T09:23:07;35.65;;;20.00;;
74650;SDS011;63169;46.042;14.592;2022-12-18T09:25:34;39.00;;;19.45;;
74650;SDS011;63169;46.042;14.592;2022-12-18T09:28:04;36.08;;;18.75;;
74650;SDS011;63169;46.042;14.592;2022-12-18T09:30:31;39.75;;;20.70;;
74650;SDS011;63169;46.042;14.592;2022-12-18T09:32:59;38.78;;;21.55;;
74650;SDS011;63169;46.042;14.592;2022-12-18T09:35:25;37.10;;;21.10;;
74650;SDS011;63169;46.042;14.592;2022-12-18T09:37:50;34.05;;;19.70;;
74650;SDS011;63169;46.042;14.592;2022-12-18T09:40:16;38.17;;;21.42;;
74650;SDS011;63169;46.042;14.592;2022-12-18T09:42:44;38.95;;;21.40;;
74650;SDS011;63169;46.042;14.592;2022-12-18T09:45:12;37.92;;;20.35;;
74650;SDS011;63169;46.042;14.592;2022-12-18T09:47:39;31.73;;;16.50;;
74650;SDS011;63169;46.042;14.592;2022-12-18T09:50:12;35.45;;;18.67;;
74650;SDS011;63169;46.042;14.592;2022-12-18T09:52:56;31.05;;;18.23;;
74650;SDS011;63169;46.042;14.592;2022-12-18T09:55:40;38.20;;;18.48;;
74650;SDS011;63169;46.042;14.592;2022-12-18T10:00:35;30.23;;;14.95;;
74650;SDS011;63169;46.042;14.592;2022-12-18T10:03:02;28.55;;;14.88;;
74650;SDS011;63169;46.042;14.592;2022-12-18T10:11:01;32.45;;;14.02;;
74650;SDS011;63169;46.042;14.592;2022-12-18T10:13:41;31.55;;;16.65;;
74650;SDS011;63169;46.042;14.592;2022-12-18T10:16:19;30.90;;;15.00;;
74650;SDS011;63169;46.042;14.592;2022-12-18T10:21:48;22.92;;;12.07;;
74650;SDS011;63169;46.042;14.592;2022-12-18T10:24:23;24.25;;;12.30;;
74650;SDS011;63169;46.042;14.592;2022-12-18T10:26:51;17.92;;;10.23;;
74650;SDS011;63169;46.042;14.592;2022-12-18T10:29:17;19.80;;;11.57;;
74650;SDS011;63169;46.042;14.592;2022-12-18T10:31:43;19.13;;;11.05;;
74650;SDS011;63169;46.042;14.592;2022-12-18T10:34:11;21.42;;;11.32;;
74650;SDS011;63169;46.042;14.592;2022-12-18T10:36:40;17.60;;;10.13;;
74650;SDS011;63169;46.042;14.592;2022-12-18T10:41:44;20.92;;;11.68;;
74650;SDS011;63169;46.042;14.592;2022-12-18T10:44:20;18.17;;;9.38;;
74650;SDS011;63169;46.042;14.592;2022-12-18T10:46:51;18.35;;;10.43;;
74650;SDS011;63169;46.042;14.592;2022-12-18T10:49:27;18.35;;;10.82;;
74650;SDS011;63169;46.042;14.592;2022-12-18T10:55:02;18.92;;;10.45;;
74650;SDS011;63169;46.042;14.592;2022-12-18T11:00:00;21.00;;;10.80;;
74650;SDS011;63169;46.042;14.592;2022-12-18T11:02:42;18.98;;;11.30;;
74650;SDS011;63169;46.042;14.592;2022-12-18T11:07:49;18.10;;;10.77;;
74650;SDS011;63169;46.042;14.592;2022-12-18T11:10:19;18.88;;;10.45;;
74650;SDS011;63169;46.042;14.592;2022-12-18T11:12:45;18.75;;;11.43;;
74650;SDS011;63169;46.042;14.592;2022-12-18T11:15:21;60.53;;;43.58;;
74650;SDS011;63169;46.042;14.592;2022-12-18T11:17:51;23.08;;;11.35;;
74650;SDS011;63169;46.042;14.592;2022-12-18T11:20:33;18.50;;;10.63;;
74650;SDS011;63169;46.042;14.592;2022-12-18T11:23:01;16.75;;;9.68;;
74650;SDS011;63169;46.042;14.592;2022-12-18T11:25:28;17.73;;;9.73;;
74650;SDS011;63169;46.042;14.592;2022-12-18T11:27:58;20.30;;;10.85;;
74650;SDS011;63169;46.042;14.592;2022-12-18T11:30:27;16.60;;;9.27;;
74650;SDS011;63169;46.042;14.592;2022-12-18T11:38:23;14.55;;;8.05;;
74650;SDS011;63169;46.042;14.592;2022-12-18T11:40:58;16.23;;;10.25;;
74650;SDS011;63169;46.042;14.592;2022-12-18T11:43:29;16.52;;;7.20;;
74650;SDS011;63169;46.042;14.592;2022-12-18T11:46:13;17.98;;;9.70;;
74650;SDS011;63169;46.042;14.592;2022-12-18T11:51:32;15.45;;;9.10;;
74650;SDS011;63169;46.042;14.592;2022-12-18T11:56:35;15.68;;;8.85;;
74650;SDS011;63169;46.042;14.592;2022-12-18T11:59:09;12.90;;;8.85;;
74650;SDS011;63169;46.042;14.592;2022-12-18T12:09:46;16.17;;;9.77;;
74650;SDS011;63169;46.042;14.592;2022-12-18T12:17:24;15.93;;;8.52;;
74650;SDS011;63169;46.042;14.592;2022-12-18T12:20:08;14.02;;;8.02;;
74650;SDS011;63169;46.042;14.592;2022-12-18T12:25:21;17.02;;;9.10;;
74650;SDS011;63169;46.042;14.592;2022-12-18T12:36:46;14.15;;;9.60;;
74650;SDS011;63169;46.042;14.592;2022-12-18T12:39:16;17.27;;;10.15;;
74650;SDS011;63169;46.042;14.592;2022-12-18T12:41:45;16.00;;;9.10;;
74650;SDS011;63169;46.042;14.592;2022-12-18T12:44:32;17.15;;;10.43;;
74650;SDS011;63169;46.042;14.592;2022-12-18T12:47:03;19.15;;;11.88;;
74650;SDS011;63169;46.042;14.592;2022-12-18T12:49:36;16.15;;;9.98;;
74650;SDS011;63169;46.042;14.592;2022-12-18T12:52:07;15.70;;;9.90;;
74650;SDS011;63169;46.042;14.592;2022-12-18T12:54:36;18.20;;;10.75;;
74650;SDS011;63169;46.042;14.592;2022-12-18T13:05:23;17.02;;;9.05;;
74650;SDS011;63169;46.042;14.592;2022-12-18T13:08:10;18.38;;;10.77;;
74650;SDS011;63169;46.042;14.592;2022-12-18T13:10:40;17.77;;;8.00;;
74650;SDS011;63169;46.042;14.592;2022-12-18T13:13:10;21.48;;;12.07;;
74650;SDS011;63169;46.042;14.592;2022-12-18T13:20:37;19.13;;;10.98;;
74650;SDS011;63169;46.042;14.592;2022-12-18T13:25:45;22.45;;;14.27;;
74650;SDS011;63169;46.042;14.592;2022-12-18T13:35:40;16.85;;;10.57;;
74650;SDS011;63169;46.042;14.592;2022-12-18T13:41:00;20.95;;;12.45;;
74650;SDS011;63169;46.042;14.592;2022-12-18T13:48:51;15.73;;;8.63;;
74650;SDS011;63169;46.042;14.592;2022-12-18T13:51:21;17.08;;;9.30;;
74650;SDS011;63169;46.042;14.592;2022-12-18T13:56:16;16.75;;;8.63;;
74650;SDS011;63169;46.042;14.592;2022-12-18T13:58:45;16.98;;;8.95;;
74650;SDS011;63169;46.042;14.592;2022-12-18T14:01:23;17.92;;;10.73;;
74650;SDS011;63169;46.042;14.592;2022-12-18T14:03:49;17.98;;;10.68;;
74650;SDS011;63169;46.042;14.592;2022-12-18T14:06:17;19.75;;;10.48;;
74650;SDS011;63169;46.042;14.592;2022-12-18T14:08:42;17.27;;;9.63;;
74650;SDS011;63169;46.042;14.592;2022-12-18T14:11:18;19.08;;;8.82;;
74650;SDS011;63169;46.042;14.592;2022-12-18T14:13:45;21.23;;;11.30;;
74650;SDS011;63169;46.042;14.592;2022-12-18T14:16:12;22.25;;;10.55;;
74650;SDS011;63169;46.042;14.592;2022-12-18T14:19:13;18.38;;;10.43;;
74650;SDS011;63169;46.042;14.592;2022-12-18T14:21:33;20.67;;;12.27;;
74650;SDS011;63169;46.042;14.592;2022-12-18T14:26:40;17.08;;;11.93;;
74650;SDS011;63169;46.042;14.592;2022-12-18T14:31:43;19.67;;;12.32;;
74650;SDS011;63169;46.042;14.592;2022-12-18T14:34:14;18.83;;;10.82;;
74650;SDS011;63169;46.042;14.592;2022-12-18T14:36:51;20.05;;;11.73;;
74650;SDS011;63169;46.042;14.592;2022-12-18T14:39:17;20.27;;;11.30;;
74650;SDS011;63169;46.042;14.592;2022-12-18T14:41:43;19.95;;;11.18;;
74650;SDS011;63169;46.042;14.592;2022-12-18T14:44:10;16.80;;;9.90;;
74650;SDS011;63169;46.042;14.592;2022-12-18T14:46:40;21.90;;;12.40;;
74650;SDS011;63169;46.042;14.592;2022-12-18T14:49:20;18.65;;;10.35;;
74650;SDS011;63169;46.042;14.592;2022-12-18T14:51:50;18.10;;;12.30;;
74650;SDS011;63169;46.042;14.592;2022-12-18T14:54:20;18.33;;;10.48;;
74650;SDS011;63169;46.042;14.592;2022-12-18T14:56:47;15.30;;;9.38;;
74650;SDS011;63169;46.042;14.592;2022-12-18T14:59:14;15.05;;;9.88;;
74650;SDS011;63169;46.042;14.592;2022-12-18T15:01:45;21.38;;;12.43;;
74650;SDS011;63169;46.042;14.592;2022-12-18T15:07:07;15.48;;;8.70;;
74650;SDS011;63169;46.042;14.592;2022-12-18T15:09:33;15.88;;;9.02;;
74650;SDS011;63169;46.042;14.592;2022-12-18T15:11:59;15.50;;;8.75;;
74650;SDS011;63169;46.042;14.592;2022-12-18T15:14:41;15.20;;;8.77;;
74650;SDS011;63169;46.042;14.592;2022-12-18T15:17:20;38.13;;;25.45;;
74650;SDS011;63169;46.042;14.592;2022-12-18T15:19:47;16.20;;;9.27;;
74650;SDS011;63169;46.042;14.592;2022-12-18T15:22:18;16.13;;;8.25;;
74650;SDS011;63169;46.042;14.592;2022-12-18T15:24:51;18.13;;;10.32;;
74650;SDS011;63169;46.042;14.592;2022-12-18T15:32:47;17.23;;;9.35;;
74650;SDS011;63169;46.042;14.592;2022-12-18T15:35:15;20.15;;;11.50;;
74650;SDS011;63169;46.042;14.592;2022-12-18T15:37:41;16.73;;;9.65;;
74650;SDS011;63169;46.042;14.592;2022-12-18T15:40:08;20.83;;;11.13;;
74650;SDS011;63169;46.042;14.592;2022-12-18T15:42:37;23.08;;;16.27;;
74650;SDS011;63169;46.042;14.592;2022-12-18T15:45:21;20.90;;;13.85;;
74650;SDS011;63169;46.042;14.592;2022-12-18T15:47:46;19.73;;;12.10;;
74650;SDS011;63169;46.042;14.592;2022-12-18T15:50:12;19.70;;;12.30;;
74650;SDS011;63169;46.042;14.592;2022-12-18T15:52:44;22.52;;;14.80;;
74650;SDS011;63169;46.042;14.592;2022-12-18T15:55:14;24.25;;;15.10;;
74650;SDS011;63169;46.042;14.592;2022-12-18T15:58:03;27.50;;;16.27;;
74650;SDS011;63169;46.042;14.592;2022-12-18T16:00:30;25.10;;;14.73;;
74650;SDS011;63169;46.042;14.592;2022-12-18T16:02:56;22.70;;;12.73;;
74650;SDS011;63169;46.042;14.592;2022-12-18T16:05:21;22.45;;;15.02;;
74650;SDS011;63169;46.042;14.592;2022-12-18T16:07:48;28.20;;;16.55;;
74650;SDS011;63169;46.042;14.592;2022-12-18T16:10:13;27.55;;;17.23;;
74650;SDS011;63169;46.042;14.592;2022-12-18T16:12:39;34.58;;;18.40;;
74650;SDS011;63169;46.042;14.592;2022-12-18T16:15:06;26.52;;;18.83;;
74650;SDS011;63169;46.042;14.592;2022-12-18T16:17:31;30.02;;;20.05;;
74650;SDS011;63169;46.042;14.592;2022-12-18T16:19:57;28.77;;;16.15;;
74650;SDS011;63169;46.042;14.592;2022-12-18T16:22:24;19.70;;;11.18;;
74650;SDS011;63169;46.042;14.592;2022-12-18T16:24:52;21.88;;;13.75;;
74650;SDS011;63169;46.042;14.592;2022-12-18T16:27:18;19.25;;;11.25;;
74650;SDS011;63169;46.042;14.592;2022-12-18T16:29:44;26.10;;;11.90;;